Language selection

Features

My Weather Profile Weather Topics  | 

Bowie - southern half: Past 24 Hour Conditions

 

North Hecate Strait - 46183

08:00 PM PDT 18 October 2019Buoy position: 53.63N 131.1W
Disclaimer

This table is a summary of hourly weather conditions for the past 24 hours.
Please note that these observations might not always be representative of weather conditions over their associated marine area.

Date / Time
(PDT)
Wind(knots) Wave height(m) Wave period(s) Pressure(kPa) Air tempC) Water tempC)
18 October 2019
20:00 SW 13 gust 23 N/A N/A 100.4 10 14
19:00 S 16 gust 19 N/A N/A 100.3 11 14
18:00 S 16 gust 17 N/A N/A 100.3 11 14
17:00 S 16 gust 19 N/A N/A 100.3 11 14
16:00 S 16 gust 19 N/A N/A 100.4 11 14
15:00 SSW 16 gust 19 N/A N/A 100.4 11 14
14:00 SSW 17 gust 19 N/A N/A 100.4 11 14
13:00 SSW 16 gust 17 N/A N/A 100.4 10 14
12:00 SSW 16 gust 17 N/A N/A 100.3 11 14
11:00 SSW 16 gust 17 N/A N/A 100.3 10 14
10:00 SW 12 gust 16 N/A N/A 100.2 10 14
9:00 WSW 13 gust 17 N/A N/A 100.2 10 14
8:00 W 17 gust 19 N/A N/A 100.1 10 14
7:00 WSW 16 gust 19 N/A N/A 100.0 10 14
6:00 WSW 16 gust 17 N/A N/A 99.9 10 14
5:00 SW 16 gust 19 N/A N/A 99.8 9 14
4:00 SW 17 gust 22 N/A N/A 99.8 9 15
3:00 SW 17 gust 22 N/A N/A 99.7 10 14
2:00 WSW 13 gust 16 N/A N/A 99.6 10 14
1:00 W 13 gust 17 N/A N/A 99.5 10 14
0:00 W 10 gust 12 N/A N/A 99.5 10 14
17 October 2019
23:00 WNW 13 gust 17 N/A N/A 99.4 9 14
22:00 NW 16 gust 22 N/A N/A 99.3 9 14
21:00 WNW 19 gust 25 N/A N/A 99.2 9 14
20:00 W 19 gust 25 N/A N/A 99.1 10 14

Zoom-in to make a selection

Map of Pacific - North Coast marine weather areas Middle Nomad - 46004 South Nomad - 46036 Dixon Entrance Central - 46145 South Moresby - 46147 Nanakwa Shoal - 46181 North Hecate Strait - 46183 North Nomad - 46184 South Hecate Strait - 46185 West Sea Otter - 46204 West Dixon Entrance - 46205 East Dellwood - 46207 West Moresby - 46208 Sartine Island Cape St.James Kindakun Rocks Langara Island Masset Municipal Airport Rose Spit Sandspit Airport Bella Bella Airport Bella Coola Airport Bonilla Island Cathedral Point Cumshewa Island Grey Islet Holland Rock Lucy Islands Lightstation Prince Rupert Airport
Legend:
buoy Buoy
land station Land Station

Pacific - North Coast Area

Another Region

What we are doing

Date modified: